Gillette, WY

7:09 AM MDT on July 23, 2014 (GMT -0600)
Johnson County (KBYG) Elev 4967 ft | 44.38 °N, 106.72 °W | Change Station

Current weather conditions updated 16 minutes ago

Clear
Clear
63 °F
Feels Like 63 °F
N
12
Wind Variable Wind from SSE

Today is forecast to be Warmer than yesterday.

Today
High -- | Low -- °F
--% Chance of Precip.
Yesterday
High -- | Low -- °F
Precip. -- in
5:39 AM 8:38 PM
Waning Crescent, 10% visible
Pressure 30.09 in
Visibility 10.0 miles
Clouds Clear
Dew Point 57 °F
Humidity 81%
Rainfall 0.00 in
Snow Depth Not available.
UV 1 out of 12
Pollen 6.20 out of 12
Air Quality Not available.
Flu Activity Not available.
METAR KBYG 231253Z AUTO 16010KT 10SM CLR 17/14 A3026 RMK AO2 SLP187 T01720139

More Conditions Fewer Conditions

Pressure 30.09 in
Visibility 10.0 miles
Clouds Clear
Dew Point 57 °F
Humidity 81%
Rainfall 0.00 in
Snow Depth Not available.
UV 1 out of 12
Pollen 6.20 out of 12
Air Quality Not available.
Flu Activity Not available.
METAR KBYG 231253Z AUTO 16010KT 10SM CLR 17/14 A3026 RMK AO2 SLP187 T01720139

More Conditions Fewer Conditions

10-Day Weather Forecast

Almanac

Astronomy

Jul. 23, 2014 Rise Set
Actual Time 5:39 AM MDT 8:38 PM MDT
Civil Twilight 5:05 AM MDT 9:12 PM MDT
Nautical Twilight 4:20 AM MDT 9:56 PM MDT
Astronomical Twilight 3:28 AM MDT 10:48 PM MDT
Moon 3:01 AM MDT 6:08 PM MDT
Length of Visible Light 16h 07m
Length of Day
14h 58m
Tomorrow will be 2m 2s shorter.
Waning Crescent, 10% of the Moon is Illuminated
Today
Waning Crescent
Jul 26
New
Aug 3
First Quarter
Aug 10
Full
Aug 17
Last Quarter

Today's Extremes

State Highs State Lows

Community

WunderPhotos

Upload Photos

1,736,584 photos uploaded!

Nearby

Snow Depth

Station Depth Elevation
Cole Canyon 0 in 5910 ft
Hansen Sawmill 0 in 8360 ft
Big Goose 0 in 7990 ft
Powder River Pass 0 in 9480 ft
Dome Lake 0 in 8880 ft

Earthquake Activity

City Distance Mag. Time & Date
No recent earthquake activity has been reported nearby.
Minimum magnitude displayed is 2.5.

Coastal Water Temperatures

Place Temperature
No Stations Reporting

Nearby Weather Stations

Station Location Temp. Dew Point Humidity Wind Precip. Elev Updated Type
RAWS ECHETA WY, Gillette, WY 65 °F 58 °F 79% South  at  11 mph 0.00 in / hr 4396 ft 5:51 AM MDT MADIS

Show More Stations Show Fewer Stations